Terminal Aerodrome Forecast
Issued by NWS

Current Version | Previous Version | Graphics & Text | Print | Product List | Glossary On
Versions: 1 2 3 4 5 6 7 8 9 10 11 12 13 14 15 16 17 18 19 20 21 22
964
FTUS41 KRLX 220909 AAA
TAFCKB
TAF AMD
KCKB 220909Z 2209/2306 33012G19KT P6SM SCT050
      TEMPO 2209/2211 BKN030
     FM221200 35009KT P6SM FEW045
     FM221600 34010G18KT P6SM FEW200
     FM222200 36007KT P6SM FEW250=

USA.gov is the U.S. government's official web portal to all federal, state and local government web resources and services.